Placita, New Mexico
Current Conditions -  °F | °C
As of 6:15 AM on Thursday 30 Oct 2014 (Local Time) from KSKX Reporting Station
Clear Clear  
Wind Chill: -3°   Ceiling: Unl
Heat Index: -3°   Visibility: 10mi
Dew Point: -13°   Wind: 0mph
Humidity: 47%   Direction: NA
Pressure: 30.38"   Gusts: NA
Location:  36.1892°N, 105.688°W
Report Text: KSKX 301215Z AUTO 00000KT 10SM CLR M03/M13 A3038 RMK AO1
Loading
Personal Weather Stations






























Interactive Weather Map
Tropical Storm Tracking
New forecast layout! Learn more

10-Day Weather Forecast

Advertisements
Track Severe Weather on mobile